Terminal Aerodrome Forecast
Issued by NWS

Home | Current Version | Previous Version | Text Only | Print | Product List | Glossary On
Versions: 1 2 3 4 5 6 7 8 9 10 11 12 13 14 15 16 17 18 19 20 21 22 23 24 25 26 27 28
000
FTUS46 KPDT 301100
TAFDLS
TAF
KDLS 301120Z 3012/3112 09005KT P6SM OVC018
     FM301300 VRB02KT 6SM BR SCT007 OVC015
     FM301900 08005KT P6SM BKN020
     FM310400 VRB02KT P6SM OVC015=

USA.gov is the U.S. government's official web portal to all federal, state and local government web resources and services.